LFRV/VNE METAR and TAF weather

Enter ICAO airport designator
Station Type Date Time Source
LFRV METAR 2020/03/31 10:30 UTC NOAA

LFRV 311030Z AUTO 06020KT CAVOK 10/00 Q1023


Station Type Date Time Source
LFRV Decoded METAR 2020/03/31 10:30 UTC NOAA

Station name not available
Mar 31, 2020 - 06:30 AM EDT / 2020.03.31 1030 UTC
Wind: from the ENE (060 degrees) at 23 MPH (20 KT):0
Visibility: greater than 7 mile(s):0
Temperature: 50 F (10 C)
Dew Point: 32 F (0 C)
Relative Humidity: 49%
Pressure (altimeter): 30.21 in. Hg (1023 hPa)
ob: LFRV 311030Z AUTO 06020KT CAVOK 10/00 Q1023
cycle: 10

Station Type Date Time Source
LFRV TAF UTC NOAA

Error!

Example: see airport list